createdAt,value
2019-03-06T00:00:33.660Z,7.29
2019-03-06T00:01:35.627Z,7.31
2019-03-06T00:02:33.623Z,7.40
2019-03-06T00:03:33.621Z,7.31
2019-03-06T00:04:33.674Z,7.36
2019-03-06T00:05:33.619Z,7.40
2019-03-06T00:06:33.678Z,7.36
2019-03-06T00:07:33.656Z,7.39
2019-03-06T00:08:33.636Z,7.36
2019-03-06T00:09:33.642Z,7.28
2019-03-06T00:10:33.680Z,7.25
2019-03-06T00:11:33.638Z,7.22
2019-03-06T00:12:33.704Z,7.28
2019-03-06T00:13:33.687Z,7.25
2019-03-06T00:14:33.670Z,7.28
2019-03-06T00:15:33.706Z,7.26
2019-03-06T00:16:33.666Z,7.21
2019-03-06T00:17:33.672Z,7.26
2019-03-06T00:18:33.828Z,7.29
2019-03-06T00:19:33.686Z,7.25
2019-03-06T00:20:33.712Z,7.32
2019-03-06T00:21:33.695Z,7.28
2019-03-06T00:22:33.702Z,7.31
2019-03-06T00:23:33.684Z,7.39
2019-03-06T00:24:33.730Z,7.26
2019-03-06T00:25:33.704Z,7.43
2019-03-06T00:26:33.692Z,7.29
2019-03-06T00:27:33.716Z,7.29
2019-03-06T00:28:33.714Z,7.26
2019-03-06T00:29:33.743Z,7.36
2019-03-06T00:30:33.822Z,7.23
2019-03-06T00:31:33.724Z,7.36
2019-03-06T00:32:33.746Z,7.33
2019-03-06T00:33:33.728Z,7.22
2019-03-06T00:34:33.766Z,7.28
2019-03-06T00:35:33.747Z,7.22
2019-03-06T00:36:33.724Z,7.28
2019-03-06T00:37:33.757Z,7.26
2019-03-06T00:38:33.749Z,7.37
2019-03-06T00:39:33.758Z,7.28
2019-03-06T00:40:33.749Z,7.28
2019-03-06T00:41:33.759Z,7.26
2019-03-06T00:42:33.762Z,7.36
2019-03-06T00:43:33.831Z,7.31
2019-03-06T00:44:33.813Z,7.41
2019-03-06T00:45:33.766Z,7.33
2019-03-06T00:46:33.767Z,7.43
2019-03-06T00:47:33.762Z,7.37
2019-03-06T00:48:33.780Z,7.36
2019-03-06T00:49:33.775Z,7.37
2019-03-06T00:50:33.802Z,7.40
2019-03-06T00:51:34.001Z,7.40
2019-03-06T00:52:33.793Z,7.33
2019-03-06T00:53:33.802Z,7.44
2019-03-06T00:54:33.838Z,7.40
2019-03-06T00:55:33.796Z,7.41
2019-03-06T00:56:33.796Z,7.41
2019-03-06T00:57:33.820Z,7.43
2019-03-06T00:58:33.806Z,7.48
2019-03-06T00:59:33.815Z,7.46
2019-03-06T01:00:33.860Z,7.44
2019-03-06T01:01:33.822Z,7.39
2019-03-06T01:02:33.835Z,7.46
2019-03-06T01:03:33.818Z,7.44
2019-03-06T01:04:33.837Z,7.43
2019-03-06T01:05:33.841Z,7.41
2019-03-06T01:06:33.913Z,7.53
2019-03-06T01:07:33.828Z,7.48
2019-03-06T01:08:33.848Z,7.50
2019-03-06T01:09:33.864Z,7.48
2019-03-06T01:10:33.860Z,7.58
2019-03-06T01:11:33.856Z,7.51
2019-03-06T01:12:33.884Z,7.55
2019-03-06T01:13:33.860Z,7.69
2019-03-06T01:14:33.862Z,7.69
2019-03-06T01:15:33.866Z,7.64
2019-03-06T01:16:33.891Z,7.62
2019-03-06T01:17:33.918Z,7.69
2019-03-06T01:18:33.888Z,7.58
2019-03-06T01:19:33.883Z,7.69
2019-03-06T01:20:33.889Z,7.72
2019-03-06T01:21:33.891Z,7.67
2019-03-06T01:22:33.905Z,7.67
2019-03-06T01:23:33.914Z,7.72
2019-03-06T01:24:33.918Z,7.69
2019-03-06T01:25:33.910Z,7.70
2019-03-06T01:26:33.913Z,7.70
2019-03-06T01:27:33.953Z,7.58
2019-03-06T01:28:33.910Z,7.64
2019-03-06T01:29:33.916Z,7.66
2019-03-06T01:30:33.977Z,7.61
2019-03-06T01:31:33.921Z,7.51
2019-03-06T01:32:33.945Z,7.55
2019-03-06T01:33:33.981Z,7.58
2019-03-06T01:34:33.964Z,7.61
2019-03-06T01:35:33.939Z,7.51
2019-03-06T01:36:33.935Z,7.51
2019-03-06T01:37:33.994Z,7.47
2019-03-06T01:38:33.946Z,7.41
2019-03-06T01:39:33.977Z,7.40
2019-03-06T01:40:33.963Z,7.39
2019-03-06T01:41:33.992Z,7.32
2019-03-06T01:42:33.989Z,7.37
2019-03-06T01:43:33.969Z,7.31
2019-03-06T01:44:33.972Z,7.29
2019-03-06T01:45:33.961Z,7.22
2019-03-06T01:46:33.979Z,7.13
2019-03-06T01:47:34.010Z,7.21
2019-03-06T01:48:34.068Z,7.23
2019-03-06T01:49:34.004Z,7.21
2019-03-06T01:50:34.030Z,7.18
2019-03-06T01:51:33.996Z,7.15
2019-03-06T01:52:33.991Z,7.21
2019-03-06T01:53:34.065Z,7.13
2019-03-06T01:54:34.060Z,7.14
2019-03-06T01:55:34.047Z,7.21
2019-03-06T01:56:34.003Z,7.19
2019-03-06T01:57:33.999Z,7.11
2019-03-06T01:58:34.053Z,7.07
2019-03-06T01:59:34.028Z,7.05
2019-03-06T02:00:34.086Z,7.10
2019-03-06T02:01:34.015Z,7.18
2019-03-06T02:02:34.093Z,7.14
2019-03-06T02:03:34.055Z,7.11
2019-03-06T02:04:34.036Z,7.11
2019-03-06T02:05:34.119Z,7.01
2019-03-06T02:06:34.036Z,7.10
2019-03-06T02:07:34.053Z,7.01
2019-03-06T02:08:34.066Z,7.04
2019-03-06T02:09:34.056Z,7.03
2019-03-06T02:10:34.120Z,6.97
2019-03-06T02:11:34.104Z,7.01
2019-03-06T02:12:34.091Z,7.03
2019-03-06T02:13:34.069Z,6.95
2019-03-06T02:14:34.091Z,7.00
2019-03-06T02:15:34.097Z,6.96
2019-03-06T02:16:34.158Z,6.96
2019-03-06T02:17:34.095Z,6.96
2019-03-06T02:18:34.096Z,7.01
2019-03-06T02:19:34.101Z,7.00
2019-03-06T02:20:34.084Z,7.00
2019-03-06T02:21:34.087Z,6.95
2019-03-06T02:22:34.119Z,6.97
2019-03-06T02:23:34.127Z,6.97
2019-03-06T02:24:34.097Z,6.96
2019-03-06T02:25:34.122Z,7.01
2019-03-06T02:26:34.097Z,6.89
2019-03-06T02:27:34.139Z,6.89
2019-03-06T02:28:34.190Z,6.86
2019-03-06T02:29:34.118Z,6.92
2019-03-06T02:30:34.146Z,6.89
2019-03-06T02:31:34.150Z,6.93
2019-03-06T02:32:34.131Z,6.95
2019-03-06T02:33:34.138Z,6.85
2019-03-06T02:34:34.163Z,6.92
2019-03-06T02:35:34.176Z,6.82
2019-03-06T02:36:34.150Z,6.78
2019-03-06T02:37:34.153Z,6.83
2019-03-06T02:38:34.196Z,6.75
2019-03-06T02:39:34.191Z,6.80
2019-03-06T02:40:34.155Z,6.89
2019-03-06T02:41:34.150Z,6.74
2019-03-06T02:42:34.185Z,6.82
2019-03-06T02:43:34.186Z,6.78
2019-03-06T02:44:34.220Z,6.71
2019-03-06T02:45:34.175Z,6.75
2019-03-06T02:46:34.181Z,6.83
2019-03-06T02:47:34.181Z,6.74
2019-03-06T02:48:34.197Z,6.70
2019-03-06T02:49:34.195Z,6.72
2019-03-06T02:50:34.208Z,6.77
2019-03-06T02:51:34.222Z,6.74
2019-03-06T02:52:34.200Z,6.71
2019-03-06T02:53:34.219Z,6.72
2019-03-06T02:54:34.219Z,6.68
2019-03-06T02:55:34.217Z,6.74
2019-03-06T02:56:34.211Z,6.59
2019-03-06T02:57:34.278Z,6.64
2019-03-06T02:58:34.261Z,6.60
2019-03-06T02:59:34.235Z,6.65
2019-03-06T03:00:34.238Z,6.60
2019-03-06T03:01:34.217Z,6.71
2019-03-06T03:02:34.255Z,6.64
2019-03-06T03:03:34.238Z,6.67
2019-03-06T03:04:34.254Z,6.60
2019-03-06T03:05:34.289Z,6.71
2019-03-06T03:06:34.252Z,6.65
2019-03-06T03:07:34.242Z,6.62
2019-03-06T03:08:34.257Z,6.56
2019-03-06T03:09:34.273Z,6.56
2019-03-06T03:10:34.266Z,6.60
2019-03-06T03:11:34.256Z,6.57
2019-03-06T03:12:34.338Z,6.54
2019-03-06T03:13:34.261Z,6.54
2019-03-06T03:14:34.267Z,6.54
2019-03-06T03:15:34.262Z,6.56
2019-03-06T03:16:34.266Z,6.57
2019-03-06T03:17:34.280Z,6.53
2019-03-06T03:18:34.321Z,6.59
2019-03-06T03:19:34.292Z,6.60
2019-03-06T03:20:34.291Z,6.62
2019-03-06T03:21:34.345Z,6.57
2019-03-06T03:22:34.308Z,6.64
2019-03-06T03:23:34.284Z,6.60
2019-03-06T03:24:34.294Z,6.46
2019-03-06T03:25:34.315Z,6.56
2019-03-06T03:26:34.323Z,6.46
2019-03-06T03:27:34.364Z,6.53
2019-03-06T03:28:34.332Z,6.62
2019-03-06T03:29:34.327Z,6.56
2019-03-06T03:30:34.379Z,6.57
2019-03-06T03:31:34.343Z,6.54
2019-03-06T03:32:34.321Z,6.56
2019-03-06T03:33:34.342Z,6.53
2019-03-06T03:34:34.345Z,6.53
2019-03-06T03:35:34.383Z,6.52
2019-03-06T03:36:34.317Z,6.53
2019-03-06T03:37:34.344Z,6.56
2019-03-06T03:38:34.345Z,6.57
2019-03-06T03:39:34.353Z,6.64
2019-03-06T03:40:34.346Z,6.54
2019-03-06T03:41:34.417Z,6.57
2019-03-06T03:42:34.336Z,6.59
2019-03-06T03:43:34.386Z,6.59
2019-03-06T03:44:34.361Z,6.62
2019-03-06T03:45:34.360Z,6.59
2019-03-06T03:46:34.381Z,6.56
2019-03-06T03:47:34.375Z,6.64
2019-03-06T03:48:34.377Z,6.62
2019-03-06T03:49:34.445Z,6.60
2019-03-06T03:50:34.382Z,6.54
2019-03-06T03:51:34.379Z,6.62
2019-03-06T03:52:34.402Z,6.67
2019-03-06T03:53:34.394Z,6.59
2019-03-06T03:54:34.383Z,6.70
2019-03-06T03:55:34.427Z,6.64
2019-03-06T03:56:34.395Z,6.60
2019-03-06T03:57:34.380Z,6.65
2019-03-06T03:58:34.398Z,6.64
2019-03-06T03:59:34.400Z,6.62
2019-03-06T04:00:34.425Z,6.60
2019-03-06T04:01:34.399Z,6.70
2019-03-06T04:02:34.408Z,6.68
2019-03-06T04:03:34.427Z,6.75
2019-03-06T04:04:34.422Z,6.71
2019-03-06T04:05:34.511Z,6.74
2019-03-06T04:06:34.446Z,6.60
2019-03-06T04:07:34.419Z,6.74
2019-03-06T04:08:34.422Z,6.65
2019-03-06T04:09:34.434Z,6.75
2019-03-06T04:10:34.433Z,6.71
2019-03-06T04:11:34.452Z,6.67
2019-03-06T04:12:34.500Z,6.78
2019-03-06T04:13:34.465Z,6.75
2019-03-06T04:14:34.442Z,6.77
2019-03-06T04:15:34.452Z,6.78
2019-03-06T04:16:34.440Z,6.77
2019-03-06T04:17:34.442Z,6.72
2019-03-06T04:18:34.451Z,6.74
2019-03-06T04:19:34.496Z,6.71
2019-03-06T04:20:34.459Z,6.78
2019-03-06T04:21:34.480Z,6.75
2019-03-06T04:22:34.488Z,6.78
2019-03-06T04:23:34.472Z,6.75
2019-03-06T04:24:34.486Z,6.78
2019-03-06T04:25:34.472Z,6.74
2019-03-06T04:26:34.475Z,6.77
2019-03-06T04:27:34.473Z,6.78
2019-03-06T04:28:34.480Z,6.80
2019-03-06T04:29:34.512Z,6.74
2019-03-06T04:30:34.503Z,6.78
2019-03-06T04:31:34.503Z,6.78
2019-03-06T04:32:34.492Z,6.82
2019-03-06T04:33:34.533Z,6.74
2019-03-06T04:34:34.520Z,6.78
2019-03-06T04:35:34.500Z,6.78
2019-03-06T04:36:34.550Z,6.72
2019-03-06T04:37:34.508Z,6.77
2019-03-06T04:38:34.510Z,6.71
2019-03-06T04:39:34.573Z,6.70
2019-03-06T04:40:34.513Z,6.74
2019-03-06T04:41:34.519Z,6.74
2019-03-06T04:42:34.521Z,6.72
2019-03-06T04:43:34.533Z,6.64
2019-03-06T04:44:34.530Z,6.70
2019-03-06T04:45:34.556Z,6.68
2019-03-06T04:46:34.575Z,6.60
2019-03-06T04:47:34.565Z,6.65
2019-03-06T04:48:34.549Z,6.70
2019-03-06T04:49:34.546Z,6.71
2019-03-06T04:50:34.626Z,6.65
2019-03-06T04:51:34.571Z,6.64
2019-03-06T04:52:34.552Z,6.74
2019-03-06T04:53:34.563Z,6.68
2019-03-06T04:54:34.593Z,6.65
2019-03-06T04:55:34.600Z,6.60
2019-03-06T04:56:34.562Z,6.62
2019-03-06T04:57:34.715Z,6.67
2019-03-06T04:58:34.566Z,6.60
2019-03-06T04:59:34.582Z,6.59
2019-03-06T05:00:35.368Z,6.57
2019-03-06T05:01:34.617Z,6.64
2019-03-06T05:02:34.591Z,6.54
2019-03-06T05:03:34.591Z,6.62
2019-03-06T05:04:34.602Z,6.57
2019-03-06T05:05:34.597Z,6.54
2019-03-06T05:06:34.619Z,6.60
2019-03-06T05:07:34.620Z,6.60
2019-03-06T05:08:34.620Z,6.62
2019-03-06T05:09:34.600Z,6.65
2019-03-06T05:10:34.608Z,6.62
2019-03-06T05:11:34.648Z,6.57
2019-03-06T05:12:34.617Z,6.54
2019-03-06T05:13:34.627Z,6.57
2019-03-06T05:14:34.631Z,6.54
2019-03-06T05:15:34.698Z,6.59
2019-03-06T05:16:34.684Z,6.54
2019-03-06T05:17:34.623Z,6.60
2019-03-06T05:18:34.639Z,6.57
2019-03-06T05:19:34.638Z,6.49
2019-03-06T05:20:34.633Z,6.59
2019-03-06T05:21:34.638Z,6.60
2019-03-06T05:22:34.704Z,6.46
2019-03-06T05:23:34.642Z,6.64
2019-03-06T05:24:34.693Z,6.59
2019-03-06T05:25:36.202Z,6.57
2019-03-06T05:26:34.674Z,6.64
2019-03-06T05:27:34.701Z,6.59
2019-03-06T05:28:34.674Z,6.64
2019-03-06T05:29:34.683Z,6.54
2019-03-06T05:30:34.751Z,6.59
2019-03-06T05:31:34.714Z,6.59
2019-03-06T05:32:34.702Z,6.50
2019-03-06T05:33:34.682Z,6.60
2019-03-06T05:34:34.688Z,6.54
2019-03-06T05:35:34.722Z,6.49
2019-03-06T05:36:34.692Z,6.44
2019-03-06T05:37:34.711Z,6.53
2019-03-06T05:38:34.703Z,6.52
2019-03-06T05:39:34.702Z,6.53
2019-03-06T05:40:34.708Z,6.50
2019-03-06T05:41:34.721Z,6.52
2019-03-06T05:42:34.729Z,6.53
2019-03-06T05:43:34.761Z,6.52
2019-03-06T05:44:34.700Z,6.44
2019-03-06T05:45:34.705Z,6.50
2019-03-06T05:46:34.717Z,6.53
2019-03-06T05:47:34.734Z,6.53
2019-03-06T05:48:34.768Z,6.44
2019-03-06T05:49:34.719Z,6.54
2019-03-06T05:50:34.732Z,6.52
2019-03-06T05:51:34.742Z,6.53
2019-03-06T05:52:34.745Z,6.50
2019-03-06T05:53:34.744Z,6.53
2019-03-06T05:54:34.838Z,6.54
2019-03-06T05:55:34.755Z,6.62
2019-03-06T05:56:34.762Z,6.53
2019-03-06T05:57:34.775Z,6.54
2019-03-06T05:58:34.775Z,6.52
2019-03-06T05:59:34.778Z,6.62
2019-03-06T06:00:34.837Z,6.56
2019-03-06T06:01:34.763Z,6.57
2019-03-06T06:02:34.872Z,6.62
2019-03-06T06:03:34.766Z,6.62
2019-03-06T06:04:34.819Z,6.65
2019-03-06T06:05:34.783Z,6.68
2019-03-06T06:06:34.858Z,6.64
2019-03-06T06:07:34.798Z,6.62
2019-03-06T06:08:34.781Z,6.74
2019-03-06T06:09:34.848Z,6.72
2019-03-06T06:10:34.780Z,6.68
2019-03-06T06:11:34.880Z,6.74
2019-03-06T06:12:34.802Z,6.85
2019-03-06T06:13:34.795Z,6.83
2019-03-06T06:14:34.833Z,6.87
2019-03-06T06:15:34.830Z,6.95
2019-03-06T06:16:34.803Z,6.87
2019-03-06T06:17:34.821Z,6.89
2019-03-06T06:18:34.850Z,6.86
2019-03-06T06:19:34.825Z,6.93
2019-03-06T06:20:34.943Z,6.97
2019-03-06T06:21:34.826Z,6.90
2019-03-06T06:22:34.891Z,7.00
2019-03-06T06:23:34.859Z,7.00
2019-03-06T06:24:34.851Z,7.04
2019-03-06T06:25:34.909Z,7.01
2019-03-06T06:26:34.833Z,7.04
2019-03-06T06:27:34.864Z,7.07
2019-03-06T06:28:34.879Z,7.10
2019-03-06T06:29:34.919Z,7.08
2019-03-06T06:30:34.917Z,7.13
2019-03-06T06:31:34.866Z,7.10
2019-03-06T06:32:34.906Z,7.19
2019-03-06T06:33:34.864Z,7.21
2019-03-06T06:34:34.906Z,7.18
2019-03-06T06:35:34.884Z,7.22
2019-03-06T06:36:34.878Z,7.23
2019-03-06T06:37:34.945Z,7.23
2019-03-06T06:38:34.897Z,7.19
2019-03-06T06:39:34.891Z,7.23
2019-03-06T06:40:35.765Z,7.23
2019-03-06T06:41:34.908Z,7.23
2019-03-06T06:42:34.904Z,7.25
2019-03-06T06:43:34.929Z,7.26
2019-03-06T06:44:34.895Z,7.23
2019-03-06T06:45:35.025Z,7.31
2019-03-06T06:46:34.948Z,7.31
2019-03-06T06:47:34.914Z,7.28
2019-03-06T06:48:34.963Z,7.28
2019-03-06T06:49:34.917Z,7.33
2019-03-06T06:50:34.938Z,7.32
2019-03-06T06:51:34.927Z,7.40
2019-03-06T06:52:34.963Z,7.37
2019-03-06T06:53:35.001Z,7.56
2019-03-06T06:54:34.958Z,7.51
2019-03-06T06:55:34.990Z,7.56
2019-03-06T06:56:34.960Z,7.55
2019-03-06T06:57:34.951Z,7.62
2019-03-06T06:58:34.939Z,7.53
2019-03-06T06:59:34.979Z,7.67
2019-03-06T07:00:34.945Z,7.69
2019-03-06T07:01:34.996Z,7.67
2019-03-06T07:02:34.959Z,7.72
2019-03-06T07:03:34.960Z,7.74
2019-03-06T07:04:34.994Z,7.77
2019-03-06T07:05:34.996Z,7.78
2019-03-06T07:06:34.977Z,7.74
2019-03-06T07:07:34.997Z,7.80
2019-03-06T07:08:34.995Z,7.74
2019-03-06T07:09:35.051Z,7.81
2019-03-06T07:10:35.001Z,7.88
2019-03-06T07:11:34.991Z,7.83
2019-03-06T07:12:35.066Z,7.91
2019-03-06T07:13:35.015Z,7.90
2019-03-06T07:14:35.015Z,7.95
2019-03-06T07:15:35.040Z,7.98
2019-03-06T07:16:35.025Z,7.99
2019-03-06T07:17:35.020Z,7.99
2019-03-06T07:18:35.032Z,8.03
2019-03-06T07:19:35.022Z,8.06
2019-03-06T07:20:35.093Z,8.09
2019-03-06T07:21:35.038Z,8.11
2019-03-06T07:22:35.073Z,8.11
2019-03-06T07:23:35.056Z,8.08
2019-03-06T07:24:35.051Z,8.09
2019-03-06T07:25:35.071Z,8.08
2019-03-06T07:26:35.067Z,8.21
2019-03-06T07:27:35.068Z,8.17
2019-03-06T07:28:35.065Z,8.26
2019-03-06T07:29:35.059Z,8.27
2019-03-06T07:30:35.069Z,8.24
2019-03-06T07:31:35.094Z,8.24
2019-03-06T07:32:35.068Z,8.23
2019-03-06T07:33:35.131Z,8.35
2019-03-06T07:34:35.072Z,8.31
2019-03-06T07:35:35.076Z,8.31
2019-03-06T07:36:35.098Z,8.35
2019-03-06T07:37:35.096Z,8.36
2019-03-06T07:38:35.095Z,8.39
2019-03-06T07:39:35.113Z,8.39
2019-03-06T07:40:35.133Z,8.41
2019-03-06T07:41:35.190Z,8.35
2019-03-06T07:42:35.116Z,8.46
2019-03-06T07:43:35.137Z,8.52
2019-03-06T07:44:35.128Z,8.39
2019-03-06T07:45:35.123Z,8.46
2019-03-06T07:46:35.120Z,8.46
2019-03-06T07:47:35.180Z,8.46
2019-03-06T07:48:35.137Z,8.45
2019-03-06T07:49:44.411Z,8.46
2019-03-06T07:50:35.141Z,8.52
2019-03-06T07:51:35.155Z,8.57
2019-03-06T07:52:35.138Z,8.46
2019-03-06T07:53:35.212Z,8.54
2019-03-06T07:54:35.158Z,8.60
2019-03-06T07:55:35.156Z,8.57
2019-03-06T07:56:35.163Z,8.61
2019-03-06T07:57:35.252Z,8.56
2019-03-06T07:58:35.182Z,8.61
2019-03-06T07:59:35.235Z,8.61
2019-03-06T08:00:35.302Z,8.66
2019-03-06T08:01:35.192Z,8.68
2019-03-06T08:02:35.190Z,8.68
2019-03-06T08:03:35.208Z,8.68
2019-03-06T08:04:35.190Z,8.68
2019-03-06T08:05:35.611Z,8.75
2019-03-06T08:06:35.202Z,8.75
2019-03-06T08:07:35.214Z,8.79
2019-03-06T08:08:35.203Z,8.77
2019-03-06T08:09:35.247Z,8.82
2019-03-06T08:10:35.262Z,8.81
2019-03-06T08:11:35.318Z,8.81
2019-03-06T08:12:35.219Z,8.84
2019-03-06T08:13:35.232Z,8.82
2019-03-06T08:14:35.235Z,8.81
2019-03-06T08:15:35.357Z,8.86
2019-03-06T08:16:35.332Z,8.92
2019-03-06T08:17:35.844Z,8.90
2019-03-06T08:18:35.957Z,8.95
2019-03-06T08:19:35.317Z,8.99
2019-03-06T08:20:35.381Z,8.99
2019-03-06T08:21:35.268Z,8.92
2019-03-06T08:22:35.328Z,8.97
2019-03-06T08:23:35.375Z,9.05
2019-03-06T08:24:35.270Z,8.96
2019-03-06T08:25:35.279Z,9.00
2019-03-06T08:26:35.479Z,9.09
2019-03-06T08:27:35.297Z,9.12
2019-03-06T08:28:35.290Z,9.12
2019-03-06T08:29:35.298Z,9.12
2019-03-06T08:30:35.313Z,9.13
2019-03-06T08:31:35.321Z,9.12
2019-03-06T08:32:35.342Z,9.13
2019-03-06T08:33:35.302Z,9.22
2019-03-06T08:34:35.318Z,9.16
2019-03-06T08:35:35.346Z,9.18
2019-03-06T08:36:35.375Z,9.21
2019-03-06T08:37:35.332Z,9.30
2019-03-06T08:38:35.328Z,9.31
2019-03-06T08:39:35.353Z,9.26
2019-03-06T08:40:35.355Z,9.31
2019-03-06T08:41:35.362Z,9.30
2019-03-06T08:42:35.375Z,9.34
2019-03-06T08:43:35.404Z,9.33
2019-03-06T08:44:35.359Z,9.47
2019-03-06T08:45:35.393Z,9.42
2019-03-06T08:46:35.369Z,9.52
2019-03-06T08:47:35.468Z,9.48
2019-03-06T08:48:35.375Z,9.47
2019-03-06T08:49:35.381Z,9.44
2019-03-06T08:50:35.383Z,9.62
2019-03-06T08:51:35.435Z,9.56
2019-03-06T08:52:35.443Z,9.51
2019-03-06T08:53:35.468Z,9.62
2019-03-06T08:54:35.414Z,9.72
2019-03-06T08:55:35.411Z,9.80
2019-03-06T08:56:35.411Z,9.92
2019-03-06T08:57:35.417Z,9.95
2019-03-06T08:58:35.454Z,9.97
2019-03-06T08:59:35.436Z,10.13
2019-03-06T09:00:35.433Z,10.24
2019-03-06T09:01:35.437Z,10.30
2019-03-06T09:02:35.435Z,10.33
2019-03-06T09:03:35.436Z,10.55
2019-03-06T09:04:35.460Z,10.59
2019-03-06T09:05:35.552Z,10.61
2019-03-06T09:06:35.450Z,10.68
2019-03-06T09:07:35.548Z,10.84
2019-03-06T09:08:35.456Z,10.95
2019-03-06T09:09:35.509Z,11.02
2019-03-06T09:10:35.476Z,11.12
2019-03-06T09:11:35.475Z,11.25
2019-03-06T09:12:35.506Z,11.37
2019-03-06T09:13:35.556Z,11.38
2019-03-06T09:14:35.513Z,11.55
2019-03-06T09:15:35.497Z,11.48
2019-03-06T09:16:35.561Z,11.56
2019-03-06T09:17:35.537Z,11.68
2019-03-06T09:18:35.532Z,11.70
2019-03-06T09:19:35.587Z,11.70
2019-03-06T09:20:40.006Z,11.74
2019-03-06T09:21:35.537Z,11.68
2019-03-06T09:22:35.546Z,11.77
2019-03-06T09:23:35.565Z,11.78
2019-03-06T09:24:35.559Z,11.81
2019-03-06T09:25:35.575Z,11.76
2019-03-06T09:26:35.566Z,11.81
2019-03-06T09:27:35.597Z,11.78
2019-03-06T09:28:35.607Z,11.78
2019-03-06T09:29:35.591Z,11.83
2019-03-06T09:30:35.945Z,11.81
2019-03-06T09:31:35.640Z,11.93
2019-03-06T09:32:35.618Z,11.91
2019-03-06T09:33:35.593Z,11.91
2019-03-06T09:34:35.607Z,11.97
2019-03-06T09:35:35.632Z,11.93
2019-03-06T09:36:35.639Z,11.96
2019-03-06T09:37:35.649Z,11.99
2019-03-06T09:38:35.646Z,12.07
2019-03-06T09:39:35.649Z,12.00
2019-03-06T09:40:35.706Z,12.08
2019-03-06T09:41:35.656Z,12.05
2019-03-06T09:42:35.636Z,12.03
2019-03-06T09:43:35.652Z,12.11
2019-03-06T09:44:35.703Z,12.08
2019-03-06T09:45:35.671Z,12.08
2019-03-06T09:46:35.749Z,12.14
2019-03-06T09:47:35.677Z,12.15
2019-03-06T09:48:35.704Z,12.14
2019-03-06T09:49:35.768Z,12.15
2019-03-06T09:50:35.698Z,12.20
2019-03-06T09:51:35.729Z,12.23
2019-03-06T09:52:35.704Z,12.20
2019-03-06T09:53:35.712Z,12.21
2019-03-06T09:54:35.717Z,12.18
2019-03-06T09:55:35.717Z,12.20
2019-03-06T09:56:35.793Z,12.28
2019-03-06T09:57:35.739Z,12.32
2019-03-06T09:58:35.747Z,12.29
2019-03-06T09:59:35.755Z,12.29
2019-03-06T10:00:35.755Z,12.29
2019-03-06T10:01:35.813Z,12.29
2019-03-06T10:02:35.750Z,12.33
2019-03-06T10:03:35.763Z,12.30
2019-03-06T10:04:35.772Z,12.28
2019-03-06T10:05:35.767Z,12.36
2019-03-06T10:06:35.812Z,12.28
2019-03-06T10:07:35.820Z,12.32
2019-03-06T10:08:35.796Z,12.26
2019-03-06T10:09:36.066Z,12.26
2019-03-06T10:10:35.818Z,12.36
2019-03-06T10:11:35.874Z,12.29
2019-03-06T10:12:35.836Z,12.36
2019-03-06T10:13:41.666Z,12.47
2019-03-06T10:14:35.835Z,12.40
2019-03-06T10:15:35.857Z,12.55
2019-03-06T10:16:35.846Z,12.47
2019-03-06T10:17:35.886Z,12.53
2019-03-06T10:18:35.849Z,12.58
2019-03-06T10:19:35.914Z,12.66
2019-03-06T10:20:35.852Z,12.75
2019-03-06T10:21:35.902Z,12.62
2019-03-06T10:22:35.888Z,12.66
2019-03-06T10:23:35.877Z,12.70
2019-03-06T10:24:35.925Z,12.73
2019-03-06T10:25:35.893Z,12.78
2019-03-06T10:26:35.897Z,12.83
2019-03-06T10:27:35.905Z,12.81
2019-03-06T10:28:36.672Z,12.78
2019-03-06T10:29:35.919Z,12.83
2019-03-06T10:30:35.974Z,12.83
2019-03-06T10:31:35.923Z,12.86
2019-03-06T10:32:35.930Z,12.90
2019-03-06T10:33:35.942Z,12.95
2019-03-06T10:34:36.027Z,12.98
2019-03-06T10:35:36.016Z,12.98
2019-03-06T10:36:35.952Z,12.88
2019-03-06T10:37:35.982Z,13.02
2019-03-06T10:38:35.960Z,12.99
2019-03-06T10:39:35.974Z,13.06
2019-03-06T10:40:35.998Z,13.06
2019-03-06T10:41:35.985Z,13.09
2019-03-06T10:42:36.011Z,13.02
2019-03-06T10:43:36.044Z,13.03
2019-03-06T10:44:36.009Z,13.06
2019-03-06T10:45:41.755Z,13.01
2019-03-06T10:46:36.025Z,13.05
2019-03-06T10:47:36.029Z,13.05
2019-03-06T10:48:36.032Z,13.09
2019-03-06T10:49:36.051Z,13.05
2019-03-06T10:50:36.068Z,13.02
2019-03-06T10:51:36.079Z,13.17
2019-03-06T10:52:36.085Z,13.11
2019-03-06T10:53:41.408Z,13.16
2019-03-06T10:54:44.330Z,13.08
2019-03-06T10:55:36.095Z,12.99
2019-03-06T10:56:36.116Z,13.08
2019-03-06T10:57:36.090Z,13.16
2019-03-06T10:58:36.081Z,13.13
2019-03-06T10:59:36.108Z,13.26
2019-03-06T11:00:36.105Z,13.24
2019-03-06T11:01:36.144Z,13.26
2019-03-06T11:02:36.122Z,13.24
2019-03-06T11:03:36.284Z,13.30
2019-03-06T11:04:36.146Z,13.28
2019-03-06T11:05:36.127Z,13.36
2019-03-06T11:06:36.136Z,13.36
2019-03-06T11:07:36.184Z,13.42
2019-03-06T11:08:36.146Z,13.40
2019-03-06T11:09:36.161Z,13.43
2019-03-06T11:10:36.158Z,13.47
2019-03-06T11:11:36.165Z,13.42
2019-03-06T11:12:36.193Z,13.49
2019-03-06T11:13:36.205Z,13.47
2019-03-06T11:14:36.220Z,13.52
2019-03-06T11:15:36.211Z,13.54
2019-03-06T11:16:36.208Z,13.57
2019-03-06T11:17:36.232Z,13.62
2019-03-06T11:18:36.207Z,13.71
2019-03-06T11:19:36.249Z,13.64
2019-03-06T11:20:36.252Z,13.61
2019-03-06T11:21:36.229Z,13.70
2019-03-06T11:22:36.247Z,13.67
2019-03-06T11:23:36.271Z,13.70
2019-03-06T11:24:36.249Z,13.83
2019-03-06T11:25:36.283Z,13.83
2019-03-06T11:26:36.263Z,13.89
2019-03-06T11:27:36.277Z,13.94
2019-03-06T11:28:36.318Z,13.98
2019-03-06T11:29:36.316Z,13.95
2019-03-06T11:30:36.304Z,14.12
2019-03-06T11:31:36.296Z,14.08
2019-03-06T11:32:36.351Z,14.16
2019-03-06T11:33:36.941Z,14.15
2019-03-06T11:34:36.342Z,14.28
2019-03-06T11:35:36.353Z,14.31
2019-03-06T11:36:36.336Z,14.22
2019-03-06T11:37:36.348Z,14.31
2019-03-06T11:38:36.354Z,14.34
2019-03-06T11:39:36.430Z,14.37
2019-03-06T11:40:36.365Z,14.45
2019-03-06T11:41:36.370Z,14.52
2019-03-06T11:42:36.392Z,14.52
2019-03-06T11:43:36.385Z,14.61
2019-03-06T11:44:36.416Z,14.61
2019-03-06T11:45:36.415Z,14.61
2019-03-06T11:46:36.415Z,14.73
2019-03-06T11:47:36.423Z,14.70
2019-03-06T11:48:36.427Z,14.87
2019-03-06T11:49:36.478Z,14.77
2019-03-06T11:50:40.754Z,14.87
2019-03-06T11:51:36.453Z,14.90
2019-03-06T11:52:36.625Z,14.94
2019-03-06T11:53:36.599Z,15.00
2019-03-06T11:54:36.465Z,14.92
2019-03-06T11:55:36.483Z,14.96
2019-03-06T11:56:36.499Z,15.04
2019-03-06T11:57:36.513Z,14.99
2019-03-06T11:58:36.500Z,14.99
2019-03-06T11:59:36.508Z,14.87
2019-03-06T12:00:36.930Z,14.94
2019-03-06T12:01:36.518Z,14.97
2019-03-06T12:02:36.515Z,14.96
2019-03-06T12:03:36.556Z,15.07
2019-03-06T12:04:36.748Z,15.05
2019-03-06T12:05:36.571Z,15.07
2019-03-06T12:06:36.617Z,15.02
2019-03-06T12:07:36.553Z,15.08
2019-03-06T12:08:42.873Z,15.22
2019-03-06T12:09:36.567Z,15.18
2019-03-06T12:10:36.591Z,15.27
2019-03-06T12:11:36.599Z,15.29
2019-03-06T12:12:36.629Z,15.30
2019-03-06T12:13:36.640Z,15.33
2019-03-06T12:14:36.687Z,15.25
2019-03-06T12:15:36.635Z,15.35
2019-03-06T12:16:41.850Z,15.36
2019-03-06T12:17:36.659Z,15.35
2019-03-06T12:18:36.766Z,15.18
2019-03-06T12:19:36.687Z,15.22
2019-03-06T12:20:36.677Z,15.26
2019-03-06T12:21:36.784Z,15.14
2019-03-06T12:22:36.799Z,15.11
2019-03-06T12:23:36.829Z,15.22
2019-03-06T12:24:36.934Z,15.22
2019-03-06T12:25:36.688Z,15.12
2019-03-06T12:26:36.742Z,15.12
2019-03-06T12:27:36.734Z,15.11
2019-03-06T12:28:36.737Z,15.14
2019-03-06T12:29:36.742Z,15.05
2019-03-06T12:30:36.806Z,15.02
2019-03-06T12:31:36.756Z,14.99
2019-03-06T12:32:36.813Z,14.97
2019-03-06T12:33:36.762Z,14.96
2019-03-06T12:34:36.855Z,14.90
2019-03-06T12:35:36.788Z,14.96
2019-03-06T12:36:36.796Z,14.87
2019-03-06T12:37:36.998Z,14.87
2019-03-06T12:38:36.822Z,14.92
2019-03-06T12:39:36.858Z,14.87
2019-03-06T12:40:36.831Z,14.94
2019-03-06T12:41:36.826Z,15.00
2019-03-06T12:42:36.832Z,14.96
2019-03-06T12:43:36.841Z,14.97
2019-03-06T12:44:36.850Z,14.99
2019-03-06T12:45:36.883Z,14.99
2019-03-06T12:46:37.029Z,15.07
2019-03-06T12:47:37.387Z,15.05
2019-03-06T12:48:36.875Z,15.05
2019-03-06T12:49:36.870Z,15.11
2019-03-06T12:50:36.886Z,15.00
2019-03-06T12:51:36.914Z,15.11
2019-03-06T12:52:36.968Z,15.14
2019-03-06T12:53:36.911Z,15.14
2019-03-06T12:54:36.964Z,15.19
2019-03-06T12:55:36.932Z,15.23
2019-03-06T12:56:37.001Z,15.22
2019-03-06T12:57:36.924Z,15.29
2019-03-06T12:58:36.941Z,15.32
2019-03-06T12:59:36.951Z,15.43
2019-03-06T13:00:36.957Z,15.47
2019-03-06T13:01:39.056Z,15.35
2019-03-06T13:02:37.022Z,15.41
2019-03-06T13:03:37.006Z,15.41
2019-03-06T13:04:36.984Z,15.45
2019-03-06T13:05:37.017Z,15.44
2019-03-06T13:06:37.007Z,15.41
2019-03-06T13:07:37.023Z,15.45
2019-03-06T13:08:37.012Z,15.45
2019-03-06T13:09:37.667Z,15.41
2019-03-06T13:10:37.030Z,15.43